createdAt,value
2023-04-14T00:00:17.491Z,5.30
2023-04-14T00:02:45.969Z,5.03
2023-04-14T00:05:14.378Z,5.00
2023-04-14T00:07:42.670Z,4.70
2023-04-14T00:10:11.361Z,5.27
2023-04-14T00:12:39.596Z,5.37
2023-04-14T00:15:10.041Z,5.60
2023-04-14T00:17:38.282Z,5.93
2023-04-14T00:20:06.892Z,4.83
2023-04-14T00:22:35.131Z,5.00
2023-04-14T00:25:03.651Z,5.57
2023-04-14T00:27:32.013Z,5.63
2023-04-14T00:30:00.264Z,5.57
2023-04-14T00:32:29.964Z,5.50
2023-04-14T00:35:00.066Z,5.43
2023-04-14T00:37:28.495Z,5.53
2023-04-14T00:39:57.223Z,5.00
2023-04-14T00:42:25.567Z,4.73
2023-04-14T00:44:53.852Z,4.87
2023-04-14T00:47:22.901Z,4.87
2023-04-14T00:49:52.831Z,5.07
2023-04-14T00:52:23.351Z,5.23
2023-04-14T00:54:51.676Z,4.60
2023-04-14T00:57:19.987Z,4.97
2023-04-14T00:59:48.358Z,4.83
2023-04-14T01:02:16.747Z,4.43
2023-04-14T01:04:53.821Z,4.90
2023-04-14T01:07:24.860Z,4.57
2023-04-14T01:09:53.771Z,5.07
2023-04-14T01:12:28.292Z,4.53
2023-04-14T01:14:58.946Z,4.23
2023-04-14T01:17:29.757Z,5.03
2023-04-14T01:20:09.011Z,4.47
2023-04-14T01:22:40.174Z,4.60
2023-04-14T01:25:15.351Z,4.90
2023-04-14T01:27:46.759Z,4.60
2023-04-14T01:30:33.690Z,5.00
2023-04-14T01:33:05.198Z,4.60
2023-04-14T01:35:36.185Z,4.27
2023-04-14T01:38:06.340Z,4.60
2023-04-14T01:40:35.942Z,4.60
2023-04-14T01:43:06.350Z,4.20
2023-04-14T01:45:36.867Z,3.90
2023-04-14T01:48:07.495Z,4.37
2023-04-14T01:50:36.729Z,4.10
2023-04-14T01:53:06.822Z,4.00
2023-04-14T01:55:35.909Z,4.47
2023-04-14T01:58:04.337Z,4.13
2023-04-14T02:00:33.300Z,4.13
2023-04-14T02:03:02.291Z,4.00
2023-04-14T02:05:33.874Z,4.00
2023-04-14T02:08:02.435Z,3.93
2023-04-14T02:10:30.808Z,4.50
2023-04-14T02:12:59.662Z,4.30
2023-04-14T02:15:29.129Z,4.30
2023-04-14T02:17:58.908Z,4.57
2023-04-14T02:20:27.937Z,4.73
2023-04-14T02:22:57.615Z,5.00
2023-04-14T02:25:27.332Z,4.43
2023-04-14T02:27:57.351Z,4.57
2023-04-14T02:30:28.612Z,5.10
2023-04-14T02:32:58.763Z,4.83
2023-04-14T02:35:28.030Z,4.53
2023-04-14T02:38:00.314Z,4.80
2023-04-14T02:40:31.376Z,4.33
2023-04-14T02:43:09.381Z,4.53
2023-04-14T02:45:38.274Z,4.70
2023-04-14T02:48:11.634Z,4.40
2023-04-14T02:50:42.807Z,4.33
2023-04-14T02:53:12.779Z,4.53
2023-04-14T02:55:41.428Z,4.57
2023-04-14T02:58:10.044Z,4.33
2023-04-14T03:00:40.035Z,4.43
2023-04-14T03:03:09.580Z,4.10
2023-04-14T03:05:38.115Z,4.30
2023-04-14T03:08:07.087Z,5.47
2023-04-14T03:10:36.693Z,4.60
2023-04-14T03:13:06.734Z,4.50
2023-04-14T03:15:35.085Z,4.90
2023-04-14T03:18:03.381Z,4.80
2023-04-14T03:20:31.744Z,4.53
2023-04-14T03:23:04.851Z,4.90
2023-04-14T03:25:35.091Z,5.00
2023-04-14T03:28:05.577Z,4.40
2023-04-14T03:30:34.191Z,4.70
2023-04-14T03:33:06.143Z,4.83
2023-04-14T03:35:34.909Z,5.30
2023-04-14T03:38:05.430Z,5.23
2023-04-14T03:40:36.030Z,5.23
2023-04-14T03:43:07.916Z,5.07
2023-04-14T03:45:38.635Z,4.90
2023-04-14T03:48:08.587Z,5.00
2023-04-14T03:50:40.294Z,5.13
2023-04-14T03:53:09.551Z,5.33
2023-04-14T03:55:38.222Z,5.30
2023-04-14T03:58:08.671Z,5.07
2023-04-14T04:00:37.685Z,5.17
2023-04-14T04:03:06.890Z,5.23
2023-04-14T04:05:35.695Z,5.83
2023-04-14T04:08:04.096Z,5.17
2023-04-14T04:10:34.523Z,5.27
2023-04-14T04:13:03.108Z,4.90
2023-04-14T04:15:33.281Z,5.67
2023-04-14T04:18:01.805Z,5.43
2023-04-14T04:20:31.169Z,6.50
2023-04-14T04:22:59.849Z,4.77
2023-04-14T04:25:28.093Z,5.23
2023-04-14T04:27:56.583Z,4.80
2023-04-14T04:30:25.849Z,5.00
2023-04-14T04:32:55.737Z,5.03
2023-04-14T04:35:25.456Z,5.83
2023-04-14T04:37:54.542Z,5.40
2023-04-14T04:40:22.716Z,5.50
2023-04-14T04:42:51.079Z,5.70
2023-04-14T04:45:36.475Z,5.50
2023-04-14T04:48:06.398Z,5.00
2023-04-14T04:50:34.637Z,5.97
2023-04-14T04:53:02.826Z,5.83
2023-04-14T04:55:31.033Z,6.63
2023-04-14T04:57:59.255Z,6.00
2023-04-14T05:00:28.244Z,6.40
2023-04-14T05:02:56.728Z,5.97
2023-04-14T05:05:27.135Z,6.20
2023-04-14T05:07:55.488Z,5.73
2023-04-14T05:10:23.879Z,5.93
2023-04-14T05:12:52.145Z,6.57
2023-04-14T05:15:20.426Z,6.87
2023-04-14T05:17:48.716Z,6.63
2023-04-14T05:20:17.155Z,10.13
2023-04-14T05:22:46.906Z,8.80
2023-04-14T05:25:15.499Z,7.27
2023-04-14T05:27:43.743Z,7.80
2023-04-14T05:30:12.559Z,11.20
2023-04-14T05:32:41.195Z,9.47
2023-04-14T05:35:09.884Z,7.77
2023-04-14T05:37:38.137Z,8.17
2023-04-14T05:40:08.689Z,7.23
2023-04-14T05:42:37.117Z,7.37
2023-04-14T05:45:05.557Z,7.27
2023-04-14T05:47:33.832Z,6.70
2023-04-14T05:50:03.854Z,6.10
2023-04-14T05:52:32.093Z,6.97
2023-04-14T05:55:00.345Z,7.27
2023-04-14T05:57:29.923Z,6.77
2023-04-14T05:59:58.418Z,7.33
2023-04-14T06:02:26.895Z,7.63
2023-04-14T06:04:55.438Z,6.27
2023-04-14T06:07:24.270Z,7.57
2023-04-14T06:09:52.489Z,7.00
2023-04-14T06:12:20.923Z,6.40
2023-04-14T06:14:50.919Z,5.70
2023-04-14T06:17:19.352Z,5.80
2023-04-14T06:19:48.983Z,5.83
2023-04-14T06:22:19.775Z,6.33
2023-04-14T06:24:48.237Z,6.60
2023-04-14T06:27:16.502Z,6.33
2023-04-14T06:29:44.717Z,6.33
2023-04-14T06:32:14.419Z,5.73
2023-04-14T06:34:42.816Z,5.97
2023-04-14T06:37:11.165Z,5.30
2023-04-14T06:39:39.395Z,5.20
2023-04-14T06:42:07.673Z,4.60
2023-04-14T06:44:35.921Z,5.10
2023-04-14T06:47:04.123Z,5.17
2023-04-14T06:49:33.795Z,4.93
2023-04-14T06:52:02.084Z,4.87
2023-04-14T06:54:32.874Z,4.93
2023-04-14T06:57:01.392Z,4.70
2023-04-14T06:59:29.777Z,5.00
2023-04-14T07:01:58.851Z,4.67
2023-04-14T07:04:27.254Z,4.47
2023-04-14T07:07:00.385Z,4.80
2023-04-14T07:09:29.198Z,4.27
2023-04-14T07:11:58.091Z,5.83
2023-04-14T07:14:26.469Z,5.20
2023-04-14T07:16:55.085Z,4.87
2023-04-14T07:19:23.297Z,4.70
2023-04-14T07:21:51.670Z,4.77
2023-04-14T07:24:21.303Z,4.87
2023-04-14T07:26:49.579Z,4.80
2023-04-14T07:29:17.854Z,4.67
2023-04-14T07:31:46.950Z,4.73
2023-04-14T07:34:15.269Z,5.50
2023-04-14T07:36:43.522Z,4.40
2023-04-14T07:39:12.216Z,4.30
2023-04-14T07:41:41.805Z,4.40
2023-04-14T07:44:10.282Z,4.70
2023-04-14T07:46:38.609Z,4.50
2023-04-14T07:49:06.914Z,4.50
2023-04-14T07:51:35.135Z,5.03
2023-04-14T07:54:03.433Z,4.93
2023-04-14T07:56:31.747Z,5.10
2023-04-14T07:59:01.519Z,5.17
2023-04-14T08:01:30.115Z,4.73
2023-04-14T08:03:58.559Z,4.83
2023-04-14T08:06:28.069Z,4.60
2023-04-14T08:08:56.358Z,4.77
2023-04-14T08:11:24.611Z,4.67
2023-04-14T08:13:53.219Z,4.70
2023-04-14T08:16:23.026Z,5.03
2023-04-14T08:18:51.363Z,5.00
2023-04-14T08:21:19.867Z,4.57
2023-04-14T08:23:48.182Z,4.67
2023-04-14T08:26:16.433Z,4.60
2023-04-14T08:28:44.714Z,4.07
2023-04-14T08:31:13.086Z,4.83
2023-04-14T08:33:42.704Z,4.47
2023-04-14T08:36:11.260Z,5.07
2023-04-14T08:38:39.574Z,4.77
2023-04-14T08:41:09.452Z,4.40
2023-04-14T08:43:37.687Z,6.37
2023-04-14T08:46:07.228Z,3.93
2023-04-14T08:48:37.467Z,3.50
2023-04-14T08:51:09.766Z,4.00
2023-04-14T08:53:42.691Z,3.90
2023-04-14T08:56:13.066Z,4.23
2023-04-14T08:58:41.792Z,3.53
2023-04-14T09:01:10.388Z,4.10
2023-04-14T09:03:39.253Z,4.10
2023-04-14T09:06:09.324Z,3.67
2023-04-14T09:08:38.347Z,3.53
2023-04-14T09:11:06.808Z,3.60
2023-04-14T09:13:35.926Z,3.00
2023-04-14T09:16:04.261Z,3.67
2023-04-14T09:18:34.586Z,2.90
2023-04-14T09:21:28.958Z,3.47
2023-04-14T09:23:54.438Z,3.50
2023-04-14T09:26:22.998Z,3.80
2023-04-14T09:28:52.372Z,3.60
2023-04-14T09:31:21.329Z,3.53
2023-04-14T09:33:51.322Z,3.20
2023-04-14T09:36:20.612Z,2.60
2023-04-14T09:38:49.787Z,3.53
2023-04-14T09:41:21.321Z,3.13
2023-04-14T09:43:49.701Z,3.40
2023-04-14T09:46:18.221Z,3.73
2023-04-14T09:48:53.210Z,3.27
2023-04-14T09:51:23.483Z,3.27
2023-04-14T09:53:54.798Z,3.00
2023-04-14T09:56:27.802Z,3.47
2023-04-14T09:58:58.872Z,4.53
2023-04-14T10:01:30.076Z,3.55
2023-04-14T10:03:58.524Z,3.20
2023-04-14T10:06:27.544Z,3.05
2023-04-14T10:08:57.058Z,3.13
2023-04-14T10:11:27.551Z,3.63
2023-04-14T10:13:56.732Z,3.33
2023-04-14T10:16:25.573Z,3.03
2023-04-14T10:18:54.225Z,3.42
2023-04-14T10:21:23.265Z,3.30
2023-04-14T10:23:51.956Z,3.20
2023-04-14T10:26:20.994Z,2.90
2023-04-14T10:28:51.759Z,2.70
2023-04-14T10:31:21.932Z,3.30
2023-04-14T10:33:50.474Z,3.97
2023-04-14T10:36:25.384Z,3.22
2023-04-14T10:39:00.899Z,3.70
2023-04-14T10:41:29.678Z,3.30
2023-04-14T10:43:59.305Z,3.72
2023-04-14T10:46:43.659Z,3.60
2023-04-14T10:49:13.320Z,3.78
2023-04-14T10:51:41.786Z,3.83
2023-04-14T10:54:17.141Z,3.60
2023-04-14T10:57:09.622Z,3.65
2023-04-14T10:59:41.314Z,3.45
2023-04-14T11:02:24.068Z,3.22
2023-04-14T11:05:03.900Z,3.45
2023-04-14T11:07:32.806Z,3.50
2023-04-14T11:10:05.372Z,3.60
2023-04-14T11:12:33.606Z,3.50
2023-04-14T11:15:06.640Z,3.40
2023-04-14T11:17:39.522Z,3.40
2023-04-14T11:20:15.643Z,3.43
2023-04-14T11:22:45.855Z,3.37
2023-04-14T11:25:14.954Z,3.35
2023-04-14T11:27:43.528Z,3.72
2023-04-14T11:30:15.145Z,3.95
2023-04-14T11:32:47.767Z,3.28
2023-04-14T11:35:16.835Z,3.50
2023-04-14T11:37:46.016Z,3.00
2023-04-14T11:40:15.023Z,3.28
2023-04-14T11:42:46.502Z,3.10
2023-04-14T11:45:16.508Z,3.22
2023-04-14T11:47:48.995Z,4.43
2023-04-14T11:50:19.122Z,3.83
2023-04-14T11:52:48.211Z,3.00
2023-04-14T11:55:16.620Z,3.30
2023-04-14T11:57:45.706Z,3.10
2023-04-14T12:00:15.922Z,3.03
2023-04-14T12:02:45.453Z,3.00
2023-04-14T12:05:14.930Z,3.60
2023-04-14T12:07:47.488Z,2.95
2023-04-14T12:10:16.634Z,2.78
2023-04-14T12:12:45.293Z,3.20
2023-04-14T12:15:14.648Z,3.10
2023-04-14T12:17:44.523Z,2.97
2023-04-14T12:20:18.216Z,3.13
2023-04-14T12:22:47.232Z,2.90
2023-04-14T12:25:15.718Z,3.10
2023-04-14T12:27:44.349Z,2.90
2023-04-14T12:30:13.336Z,3.17
2023-04-14T12:32:42.585Z,2.92
2023-04-14T12:35:12.618Z,3.15
2023-04-14T12:37:41.643Z,3.03
2023-04-14T12:40:14.946Z,3.10
2023-04-14T12:42:47.575Z,3.42
2023-04-14T12:45:17.539Z,3.20
2023-04-14T12:48:01.306Z,2.92
2023-04-14T12:50:33.187Z,3.30
2023-04-14T12:53:02.832Z,3.13
2023-04-14T12:55:31.935Z,2.85
2023-04-14T12:58:01.027Z,3.08
2023-04-14T13:00:29.664Z,2.63
2023-04-14T13:02:58.471Z,2.78
2023-04-14T13:05:27.074Z,2.58
2023-04-14T13:07:57.260Z,2.70
2023-04-14T13:10:25.520Z,2.97
2023-04-14T13:12:53.866Z,3.33
2023-04-14T13:16:10.872Z,2.47
2023-04-14T13:18:10.794Z,3.20
2023-04-14T13:20:39.139Z,2.92
2023-04-14T13:23:08.868Z,2.70
2023-04-14T13:25:38.467Z,2.63
2023-04-14T13:28:06.909Z,2.60
2023-04-14T13:30:35.457Z,2.83
2023-04-14T13:33:03.991Z,2.80
2023-04-14T13:35:32.696Z,2.47
2023-04-14T13:38:01.981Z,2.60
2023-04-14T13:40:31.709Z,2.60
2023-04-14T13:43:00.103Z,2.38
2023-04-14T13:45:28.649Z,2.40
2023-04-14T13:47:57.507Z,2.60
2023-04-14T13:50:26.080Z,2.10
2023-04-14T13:52:54.915Z,2.33
2023-04-14T13:55:23.700Z,2.47
2023-04-14T13:57:55.245Z,2.33
2023-04-14T14:00:23.776Z,2.70
2023-04-14T14:02:52.765Z,2.63
2023-04-14T14:05:21.329Z,3.00
2023-04-14T14:07:49.556Z,2.70
2023-04-14T14:10:17.823Z,2.90
2023-04-14T14:12:46.227Z,2.80
2023-04-14T14:15:15.852Z,2.60
2023-04-14T14:17:44.063Z,2.65
2023-04-14T14:20:12.555Z,2.85
2023-04-14T14:22:41.048Z,2.58
2023-04-14T14:25:19.184Z,2.80
2023-04-14T14:27:48.481Z,3.30
2023-04-14T14:30:18.212Z,2.65
2023-04-14T14:32:46.555Z,2.80
2023-04-14T14:35:14.886Z,2.90
2023-04-14T14:37:44.980Z,2.85
2023-04-14T14:40:14.021Z,2.38
2023-04-14T14:42:42.257Z,3.10
2023-04-14T14:45:10.914Z,2.63
2023-04-14T14:47:41.335Z,2.60
2023-04-14T14:50:10.046Z,2.58
2023-04-14T14:52:38.334Z,3.05
2023-04-14T14:55:07.039Z,2.83
2023-04-14T14:57:35.703Z,2.80
2023-04-14T15:00:05.604Z,3.10
2023-04-14T15:02:34.011Z,2.50
2023-04-14T15:05:03.800Z,2.60
2023-04-14T15:07:32.014Z,2.60
2023-04-14T15:10:01.522Z,2.72
2023-04-14T15:12:29.906Z,2.58
2023-04-14T15:14:58.165Z,3.00
2023-04-14T15:17:26.394Z,2.75
2023-04-14T15:19:54.622Z,2.50
2023-04-14T15:22:24.256Z,2.50
2023-04-14T15:24:53.146Z,2.58
2023-04-14T15:27:21.837Z,2.42
2023-04-14T15:29:50.083Z,3.03
2023-04-14T15:32:24.235Z,2.78
2023-04-14T15:34:52.588Z,2.80
2023-04-14T15:37:21.032Z,2.72
2023-04-14T15:39:51.136Z,2.05
2023-04-14T15:42:19.442Z,2.20
2023-04-14T15:44:47.746Z,2.33
2023-04-14T15:47:16.043Z,2.30
2023-04-14T15:49:44.551Z,2.67
2023-04-14T15:52:16.787Z,3.97
2023-04-14T15:54:45.145Z,3.17
2023-04-14T15:57:14.753Z,2.58
2023-04-14T15:59:42.984Z,2.88
2023-04-14T16:02:11.332Z,2.90
2023-04-14T16:04:39.720Z,4.22
2023-04-14T16:07:08.085Z,2.58
2023-04-14T16:09:37.537Z,2.38
2023-04-14T16:12:05.771Z,2.67
2023-04-14T16:14:35.436Z,2.30
2023-04-14T16:17:03.810Z,3.03
2023-04-14T16:19:32.044Z,3.25
2023-04-14T16:22:00.313Z,3.35
2023-04-14T16:24:28.618Z,2.88
2023-04-14T16:26:57.779Z,2.72
2023-04-14T16:29:26.024Z,2.55
2023-04-14T16:31:55.660Z,2.60
2023-04-14T16:34:24.785Z,3.10
2023-04-14T16:36:53.033Z,2.70
2023-04-14T16:39:22.163Z,2.50
2023-04-14T16:41:50.421Z,2.25
2023-04-14T16:44:18.637Z,2.38
2023-04-14T16:46:46.993Z,2.53
2023-04-14T16:49:17.393Z,2.40
2023-04-14T16:51:46.114Z,2.90
2023-04-14T16:54:14.356Z,2.63
2023-04-14T16:56:42.609Z,2.83
2023-04-14T16:59:10.962Z,3.05
2023-04-14T17:01:39.814Z,2.60
2023-04-14T17:04:08.436Z,2.80
2023-04-14T17:06:38.595Z,2.50
2023-04-14T17:09:06.827Z,2.90
2023-04-14T17:11:35.078Z,2.78
2023-04-14T17:14:03.621Z,2.80
2023-04-14T17:16:32.380Z,3.00
2023-04-14T17:19:01.088Z,2.80
2023-04-14T17:21:29.351Z,3.03
2023-04-14T17:23:59.125Z,3.22
2023-04-14T17:26:27.658Z,2.90
2023-04-14T17:28:56.375Z,3.00
2023-04-14T17:31:27.450Z,3.33
2023-04-14T17:33:56.126Z,3.53
2023-04-14T17:36:24.575Z,4.00
2023-04-14T17:38:53.118Z,4.10
2023-04-14T17:41:22.759Z,3.80
2023-04-14T17:43:51.330Z,3.27
2023-04-14T17:46:22.542Z,3.53
2023-04-14T17:48:51.334Z,2.87
2023-04-14T17:51:19.673Z,3.03
2023-04-14T17:53:49.841Z,2.83
2023-04-14T17:56:18.079Z,3.80
2023-04-14T17:58:48.116Z,3.00
2023-04-14T18:01:16.480Z,2.77
2023-04-14T18:03:45.465Z,3.03
2023-04-14T18:06:13.944Z,3.23
2023-04-14T18:08:42.352Z,3.10
2023-04-14T18:11:12.021Z,3.33
2023-04-14T18:13:40.476Z,3.20
2023-04-14T18:16:10.711Z,3.10
2023-04-14T18:18:39.198Z,3.53
2023-04-14T18:21:07.969Z,3.13
2023-04-14T18:23:36.258Z,3.53
2023-04-14T18:28:36.111Z,2.93
2023-04-14T18:31:04.334Z,2.97
2023-04-14T18:33:34.199Z,3.77
2023-04-14T18:36:03.205Z,4.13
2023-04-14T18:38:31.592Z,3.80
2023-04-14T18:41:03.624Z,3.87
2023-04-14T18:43:32.593Z,3.60
2023-04-14T18:46:01.243Z,4.07
2023-04-14T18:48:29.996Z,3.57
2023-04-14T18:51:01.974Z,4.10
2023-04-14T18:53:30.406Z,3.77
2023-04-14T18:55:58.762Z,4.30
2023-04-14T18:58:27.186Z,4.57
2023-04-14T19:00:55.542Z,4.70
2023-04-14T19:03:26.973Z,4.47
2023-04-14T19:05:56.607Z,3.73
2023-04-14T19:08:26.309Z,3.40
2023-04-14T19:10:54.581Z,3.70
2023-04-14T19:13:24.120Z,3.80
2023-04-14T19:15:52.566Z,3.60
2023-04-14T19:18:20.907Z,3.13
2023-04-14T19:20:49.608Z,3.43
2023-04-14T19:23:17.901Z,3.40
2023-04-14T19:25:47.521Z,4.17
2023-04-14T19:28:18.017Z,3.27
2023-04-14T19:30:46.604Z,3.73
2023-04-14T19:33:15.533Z,3.83
2023-04-14T19:35:45.261Z,3.50
2023-04-14T19:38:13.731Z,4.00
2023-04-14T19:40:49.310Z,3.80
2023-04-14T19:43:17.986Z,4.27
2023-04-14T19:45:52.830Z,4.10
2023-04-14T19:48:24.077Z,4.37
2023-04-14T19:50:54.694Z,4.50
2023-04-14T19:53:23.789Z,3.60
2023-04-14T19:55:53.776Z,3.93
2023-04-14T19:58:22.110Z,3.03
2023-04-14T20:00:51.604Z,3.23
2023-04-14T20:03:20.319Z,3.40
2023-04-14T20:05:51.658Z,3.30
2023-04-14T20:08:20.614Z,3.20
2023-04-14T20:10:51.589Z,3.73
2023-04-14T20:13:22.609Z,3.23
2023-04-14T20:15:53.819Z,2.80
2023-04-14T20:18:22.523Z,2.87
2023-04-14T20:20:51.049Z,3.33
2023-04-14T20:23:19.280Z,3.47
2023-04-14T20:25:48.681Z,3.10
2023-04-14T20:28:19.237Z,3.00
2023-04-14T20:30:50.856Z,3.47
2023-04-14T20:33:21.293Z,3.10
2023-04-14T20:35:51.489Z,3.27
2023-04-14T20:38:20.369Z,2.90
2023-04-14T20:40:48.630Z,2.90
2023-04-14T20:43:16.911Z,3.07
2023-04-14T20:45:45.593Z,3.33
2023-04-14T20:48:15.365Z,3.60
2023-04-14T20:50:44.415Z,3.33
2023-04-14T20:53:13.226Z,3.30
2023-04-14T20:55:42.189Z,2.90
2023-04-14T20:58:10.765Z,3.30
2023-04-14T21:00:39.032Z,3.07
2023-04-14T21:03:07.986Z,3.03
2023-04-14T21:05:38.134Z,3.10
2023-04-14T21:08:06.474Z,3.50
2023-04-14T21:10:35.609Z,3.10
2023-04-14T21:15:27.879Z,3.17
2023-04-14T21:16:12.795Z,3.97
2023-04-14T21:18:41.060Z,3.67
2023-04-14T21:21:11.465Z,3.47
2023-04-14T21:23:40.226Z,3.30
2023-04-14T21:26:08.727Z,3.73
2023-04-14T21:28:37.112Z,3.50
2023-04-14T21:31:05.498Z,3.87
2023-04-14T21:33:33.837Z,3.47
2023-04-14T21:36:02.239Z,3.23
2023-04-14T21:38:31.884Z,3.63
2023-04-14T21:41:00.803Z,3.80
2023-04-14T21:43:29.040Z,4.80
2023-04-14T21:45:57.823Z,4.70
2023-04-14T21:48:26.148Z,4.10
2023-04-14T21:50:54.460Z,4.47
2023-04-14T21:53:22.767Z,4.27
2023-04-14T21:56:01.823Z,3.90
2023-04-14T21:58:39.181Z,3.90
2023-04-14T22:01:09.652Z,3.80
2023-04-14T22:03:38.733Z,3.60
2023-04-14T22:06:07.595Z,3.60
2023-04-14T22:08:35.963Z,3.87
2023-04-14T22:11:06.989Z,3.83
2023-04-14T22:13:35.282Z,4.10
2023-04-14T22:16:03.676Z,4.10
2023-04-14T22:18:32.234Z,4.17
2023-04-14T22:21:00.621Z,4.20
2023-04-14T22:23:29.241Z,3.90
2023-04-14T22:25:57.598Z,4.50
2023-04-14T22:28:27.280Z,4.30
2023-04-14T22:30:56.010Z,3.90
2023-04-14T22:33:24.593Z,4.53
2023-04-14T22:35:53.135Z,3.90
2023-04-14T22:38:21.596Z,4.20
2023-04-14T22:40:52.741Z,4.60
2023-04-14T22:43:21.227Z,4.80
2023-04-14T22:45:51.024Z,4.53
2023-04-14T22:48:19.371Z,4.50
2023-04-14T22:50:47.723Z,4.73
2023-04-14T22:53:16.359Z,4.73
2023-04-14T22:55:45.066Z,4.30
2023-04-14T22:58:16.783Z,5.07
2023-04-14T23:00:45.652Z,5.00
2023-04-14T23:03:15.426Z,5.00
2023-04-14T23:05:44.639Z,4.87
2023-04-14T23:08:12.933Z,4.20
2023-04-14T23:10:41.183Z,4.83
2023-04-14T23:13:09.462Z,5.10
2023-04-14T23:15:37.793Z,4.53
2023-04-14T23:18:06.474Z,5.00
2023-04-14T23:20:36.867Z,5.20
2023-04-14T23:23:05.789Z,4.70
2023-04-14T23:25:34.136Z,4.90
2023-04-14T23:28:02.473Z,5.13
2023-04-14T23:30:30.743Z,4.70
2023-04-14T23:32:59.005Z,4.83
2023-04-14T23:35:27.506Z,4.60
2023-04-14T23:38:02.185Z,4.87
2023-04-14T23:40:30.953Z,4.93
2023-04-14T23:42:59.431Z,5.30
2023-04-14T23:45:27.832Z,4.80
2023-04-14T23:47:56.499Z,4.87
2023-04-14T23:50:58.953Z,4.67
2023-04-14T23:53:15.542Z,5.10
2023-04-14T23:55:44.341Z,5.40
2023-04-14T23:58:12.576Z,5.30
